Time;durP1;ratioP1;P1;durP2;ratioP2;P2;SDS_P1;SDS_P2;PMS_P1;PMS_P2;Temp;Humidity;BMP_temperature;BMP_pressure;BME280_temperature;BME280_humidity;BME280_pressure;Samples;Min_cycle;Max_cycle;Signal;HPM_P1;HPM_P2
2022/06/05 00:02:16;;;;;;;0.10;0.10;;;20.10;64.10;;;;;;4192055;28;20065;-70
2022/06/05 00:04:44;;;;;;;0.07;0.07;;;20.10;64.30;;;;;;4193460;28;20395;-70
2022/06/05 00:07:13;;;;;;;0.38;0.38;;;20.10;64.60;;;;;;4192710;28;22028;-70
2022/06/05 00:09:44;;;;;;;0.10;0.10;;;20.10;64.60;;;;;;4193104;28;20040;-70
2022/06/05 00:12:09;;;;;;;0.30;0.30;;;20.10;64.40;;;;;;4191253;28;20044;-70
2022/06/05 00:14:31;;;;;;;0.30;0.30;;;20.10;64.40;;;;;;4193038;28;20576;-69
2022/06/05 00:16:53;;;;;;;0.00;0.00;;;20.10;64.40;;;;;;4193696;28;20048;-73
2022/06/05 00:19:15;;;;;;;0.10;0.10;;;20.10;64.40;;;;;;4192866;28;20072;-74
2022/06/05 00:21:38;;;;;;;0.00;0.00;;;20.10;64.30;;;;;;4193111;28;20113;-74
2022/06/05 00:24:00;;;;;;;0.00;0.00;;;20.10;65.40;;;;;;4159959;28;20069;-75
2022/06/05 00:26:31;;;;;;;0.00;0.00;;;20.00;64.50;;;;;;4159641;28;20057;-75
2022/06/05 00:29:03;;;;;;;1.00;0.90;;;20.10;64.70;;;;;;4176192;28;20497;-74
2022/06/05 00:31:32;;;;;;;0.10;0.10;;;20.00;64.60;;;;;;4175982;28;20052;-75
2022/06/05 00:33:54;;;;;;;0.00;0.00;;;20.10;64.70;;;;;;4175698;28;20044;-73
2022/06/05 00:36:27;;;;;;;0.98;0.98;;;20.00;64.60;;;;;;4176072;28;20152;-76
2022/06/05 00:39:00;;;;;;;0.00;0.00;;;20.10;64.60;;;;;;4175891;28;20136;-75
2022/06/05 00:41:44;;;;;;;0.60;0.60;;;20.00;64.60;;;;;;4175543;28;20048;-74
2022/06/05 00:44:07;;;;;;;0.00;0.00;;;20.00;64.70;;;;;;4175593;28;20053;-75
2022/06/05 00:46:30;;;;;;;0.00;0.00;;;20.00;64.60;;;;;;4174629;28;20137;-75
2022/06/05 00:48:53;;;;;;;0.17;0.17;;;20.00;65.50;;;;;;4189462;28;20048;-75
2022/06/05 00:51:15;;;;;;;0.00;0.00;;;20.00;64.60;;;;;;4192414;28;20063;-75
2022/06/05 00:53:37;;;;;;;0.20;0.20;;;20.00;65.50;;;;;;4190541;28;20065;-74
2022/06/05 00:55:59;;;;;;;0.00;0.00;;;20.00;64.60;;;;;;4192285;28;20045;-74
2022/06/05 00:58:23;;;;;;;0.00;0.00;;;20.00;64.70;;;;;;4192136;28;20059;-74
2022/06/05 01:00:48;;;;;;;5.18;0.75;;;20.00;64.80;;;;;;4175568;28;20458;-73
2022/06/05 01:03:12;;;;;;;0.00;0.00;;;20.00;64.80;;;;;;4191467;28;20051;-73
2022/06/05 01:05:35;;;;;;;0.00;0.00;;;20.00;64.80;;;;;;4191601;28;20045;-73
2022/06/05 01:07:58;;;;;;;0.00;0.00;;;20.00;64.80;;;;;;4192284;28;20109;-74
2022/06/05 01:10:22;;;;;;;0.10;0.10;;;20.00;64.80;;;;;;4191406;28;20518;-74
2022/06/05 01:12:52;;;;;;;0.60;0.60;;;20.00;65.80;;;;;;4192315;28;20044;-73
2022/06/05 01:15:23;;;;;;;1.05;1.05;;;20.00;64.90;;;;;;4190119;28;20048;-74
2022/06/05 01:17:50;;;;;;;;;;;20.00;65.00;;;;;;4191437;28;20063;-74
2022/06/05 01:20:20;;;;;;;0.10;0.10;;;19.90;64.90;;;;;;4191929;28;19974;-74
2022/06/05 01:23:03;;;;;;;0.00;0.00;;;19.90;65.00;;;;;;4191687;28;20051;-75
2022/06/05 01:26:10;;;;;;;0.20;0.20;;;19.90;65.00;;;;;;4188915;28;20510;-74
2022/06/05 01:28:39;;;;;;;0.00;0.00;;;19.90;65.10;;;;;;4192317;28;20052;-75
2022/06/05 01:31:09;;;;;;;0.20;0.20;;;19.90;65.10;;;;;;4192133;28;20053;-73
2022/06/05 01:33:33;;;;;;;0.00;0.00;;;19.90;65.20;;;;;;4175111;28;20518;-76
2022/06/05 01:36:05;;;;;;;0.00;0.00;;;19.80;64.90;;;;;;4175644;28;20128;-75
2022/06/05 01:38:35;;;;;;;0.00;0.00;;;19.90;65.20;;;;;;4173928;28;20084;-74
2022/06/05 01:41:00;;;;;;;0.00;0.00;;;19.90;65.30;;;;;;4187266;28;20114;-75
2022/06/05 01:43:26;;;;;;;0.00;0.00;;;19.80;65.30;;;;;;4192520;28;20066;-75
2022/06/05 01:45:53;;;;;;;0.00;0.00;;;19.80;65.30;;;;;;4191158;28;20095;-75
2022/06/05 01:48:19;;;;;;;0.00;0.00;;;19.80;65.40;;;;;;4191638;28;20063;-75
2022/06/05 01:50:46;;;;;;;0.03;0.03;;;19.80;65.40;;;;;;4190216;28;20048;-73
2022/06/05 01:53:15;;;;;;;0.13;0.13;;;19.80;65.50;;;;;;4191422;28;20036;-73
2022/06/05 01:55:42;;;;;;;0.00;0.00;;;19.80;65.40;;;;;;4191266;28;20045;-74
2022/06/05 01:58:08;;;;;;;0.08;0.08;;;19.80;65.40;;;;;;4190669;28;20068;-74
2022/06/05 02:00:30;;;;;;;0.00;0.00;;;19.80;66.40;;;;;;4191628;28;20145;-74
2022/06/05 02:02:58;;;;;;;0.05;0.05;;;19.80;65.50;;;;;;4190206;28;20055;-73
2022/06/05 02:05:24;;;;;;;0.00;0.00;;;19.80;65.50;;;;;;4191682;28;20131;-69
2022/06/05 02:07:49;;;;;;;0.00;0.00;;;19.80;65.50;;;;;;4191380;28;20426;-69
2022/06/05 02:10:15;;;;;;;0.80;0.80;;;19.70;65.50;;;;;;4191594;28;20502;-70
2022/06/05 02:12:38;;;;;;;0.00;0.00;;;19.80;65.60;;;;;;4191209;28;20048;-70
2022/06/05 02:15:01;;;;;;;0.00;0.00;;;19.80;65.60;;;;;;4191241;28;20044;-69
2022/06/05 02:17:23;;;;;;;0.30;0.30;;;19.80;65.80;;;;;;4191088;28;20418;-68
2022/06/05 02:19:46;;;;;;;0.00;0.00;;;19.80;65.80;;;;;;4191079;28;20474;-69
2022/06/05 02:22:14;;;;;;;0.00;0.00;;;19.70;65.70;;;;;;4191471;28;20402;-69
2022/06/05 02:24:36;;;;;;;0.00;0.00;;;19.70;65.80;;;;;;4190170;28;20057;-69
2022/06/05 02:26:59;;;;;;;0.00;0.00;;;19.70;65.70;;;;;;4191515;28;20064;-69
2022/06/05 02:29:23;;;;;;;0.00;0.00;;;19.70;65.70;;;;;;4191420;28;20052;-69
2022/06/05 02:31:57;;;;;;;0.00;0.00;;;19.70;65.80;;;;;;4191737;28;20410;-69
2022/06/05 02:34:34;;;;;;;0.00;0.00;;;19.80;65.80;;;;;;4191011;28;20479;-68
2022/06/05 02:37:03;;;;;;;0.00;0.00;;;19.70;65.90;;;;;;4191258;28;20140;-68
2022/06/05 02:39:36;;;;;;;0.03;0.03;;;19.70;65.90;;;;;;4189919;28;20812;-69
2022/06/05 02:42:04;;;;;;;0.00;0.00;;;19.70;65.90;;;;;;4191174;28;20053;-68
2022/06/05 02:44:38;;;;;;;0.10;0.10;;;19.70;65.90;;;;;;4191594;28;20448;-68
2022/06/05 02:47:18;;;;;;;0.00;0.00;;;19.70;66.00;;;;;;4174782;28;20049;-69
2022/06/05 02:49:46;;;;;;;0.00;0.00;;;19.70;66.00;;;;;;4191260;28;20543;-68
2022/06/05 02:52:11;;;;;;;0.05;0.05;;;19.70;66.10;;;;;;4190001;28;20127;-69
2022/06/05 02:54:38;;;;;;;0.00;0.00;;;19.70;67.10;;;;;;4190068;28;20137;-68
2022/06/05 02:57:00;;;;;;;0.00;0.00;;;19.70;66.30;;;;;;4190465;28;20040;-68
2022/06/05 02:59:24;;;;;;;0.00;0.00;;;19.70;66.30;;;;;;4194537;28;20078;-68
2022/06/05 03:04:25;;;;;;;0.00;0.00;;;19.70;66.40;;;;;;4177434;28;20098;-68
2022/06/05 03:06:47;;;;;;;0.00;0.00;;;19.70;66.40;;;;;;4177215;28;20079;-69
2022/06/05 03:09:12;;;;;;;0.00;0.00;;;19.70;66.40;;;;;;4176174;28;20052;-69
2022/06/05 03:11:35;;;;;;;0.00;0.00;;;19.70;66.50;;;;;;4177036;28;20128;-69
2022/06/05 03:13:57;;;;;;;0.00;0.00;;;19.70;66.40;;;;;;4177203;28;20408;-68
2022/06/05 03:16:19;;;;;;;0.00;0.00;;;19.70;66.60;;;;;;4177379;28;20076;-68
2022/06/05 03:18:42;;;;;;;0.00;0.00;;;19.70;66.60;;;;;;4177663;28;20540;-68
2022/06/05 03:21:05;;;;;;;0.15;0.15;;;19.60;66.60;;;;;;4177289;28;20040;-69
2022/06/05 03:23:26;;;;;;;0.00;0.00;;;19.70;66.70;;;;;;4177293;28;20045;-68
2022/06/05 03:25:50;;;;;;;0.00;0.00;;;19.60;66.60;;;;;;4177260;28;20049;-68
2022/06/05 03:28:12;;;;;;;3.33;0.88;;;19.60;66.50;;;;;;4177972;28;20044;-68
2022/06/05 03:30:37;;;;;;;0.00;0.00;;;19.60;66.60;;;;;;4177089;28;20411;-68
2022/06/05 03:32:59;;;;;;;0.65;0.65;;;19.60;66.60;;;;;;4177481;28;20045;-68
2022/06/05 03:35:21;;;;;;;0.00;0.00;;;19.60;66.70;;;;;;4177437;28;20761;-68
2022/06/05 03:37:43;;;;;;;0.00;0.00;;;19.60;66.80;;;;;;4176642;28;20053;-69
2022/06/05 03:40:08;;;;;;;2.63;1.35;;;19.60;66.80;;;;;;4177317;28;20056;-69
2022/06/05 03:42:32;;;;;;;0.00;0.00;;;19.60;66.80;;;;;;4175549;28;20454;-68
2022/06/05 03:44:54;;;;;;;0.22;0.22;;;19.60;66.80;;;;;;4176912;28;20061;-68
2022/06/05 03:47:16;;;;;;;0.00;0.00;;;19.60;67.70;;;;;;4177051;28;20392;-68
2022/06/05 03:49:39;;;;;;;0.00;0.00;;;19.60;66.80;;;;;;4176861;28;20056;-68
2022/06/05 03:52:01;;;;;;;0.08;0.08;;;19.60;66.90;;;;;;4177197;28;20094;-68
2022/06/05 03:54:23;;;;;;;0.00;0.00;;;19.60;66.90;;;;;;4177040;28;20048;-68
2022/06/05 03:56:45;;;;;;;4.47;0.80;;;19.60;66.90;;;;;;4176938;28;20084;-68
2022/06/05 03:59:08;;;;;;;0.00;0.00;;;19.60;66.90;;;;;;4176740;28;20449;-68
2022/06/05 04:01:31;;;;;;;0.00;0.00;;;19.60;67.00;;;;;;4175193;28;20130;-68
2022/06/05 04:03:53;;;;;;;0.00;0.00;;;19.60;67.10;;;;;;4175650;28;20431;-69
2022/06/05 04:06:18;;;;;;;0.00;0.00;;;19.60;67.10;;;;;;4193093;28;20384;-68
2022/06/05 04:08:41;;;;;;;0.10;0.10;;;19.60;67.00;;;;;;4192452;28;20063;-69
2022/06/05 04:11:05;;;;;;;0.32;0.32;;;19.60;67.10;;;;;;4191832;28;20408;-69
2022/06/05 04:13:29;;;;;;;0.00;0.00;;;19.60;67.10;;;;;;4193098;28;20086;-68
2022/06/05 04:15:52;;;;;;;0.10;0.10;;;19.60;67.20;;;;;;4192752;28;20120;-68
2022/06/05 04:18:14;;;;;;;0.03;0.03;;;19.60;67.20;;;;;;4192446;28;20506;-69
2022/06/05 04:20:38;;;;;;;0.45;0.45;;;19.60;67.20;;;;;;4192409;28;20040;-68
2022/06/05 04:23:02;;;;;;;0.00;0.00;;;19.60;67.30;;;;;;4192588;28;20052;-68
2022/06/05 04:25:24;;;;;;;0.00;0.00;;;19.60;67.30;;;;;;4191749;28;20072;-69
2022/06/05 04:27:46;;;;;;;0.00;0.00;;;19.50;67.30;;;;;;4192440;28;21519;-68
2022/06/05 04:30:09;;;;;;;0.25;0.25;;;19.50;67.30;;;;;;4192143;28;20044;-69
2022/06/05 04:32:32;;;;;;;0.00;0.00;;;19.50;67.30;;;;;;4192963;28;20052;-69
2022/06/05 04:34:54;;;;;;;0.00;0.00;;;19.60;67.40;;;;;;4192472;28;20102;-68
2022/06/05 04:37:21;;;;;;;0.00;0.00;;;19.60;67.40;;;;;;4190518;28;20470;-69
2022/06/05 04:39:43;;;;;;;0.00;0.00;;;19.60;67.40;;;;;;4191048;28;20097;-68
2022/06/05 04:42:05;;;;;;;0.00;0.00;;;19.60;67.50;;;;;;4172641;28;20049;-68
2022/06/05 04:44:27;;;;;;;0.10;0.10;;;19.60;67.50;;;;;;4191092;28;20080;-69
2022/06/05 04:46:50;;;;;;;0.15;0.15;;;19.60;67.50;;;;;;4191638;28;20472;-68
2022/06/05 04:49:14;;;;;;;0.20;0.20;;;19.60;67.60;;;;;;4192300;28;20136;-68
2022/06/05 04:51:37;;;;;;;2.20;0.47;;;19.60;67.50;;;;;;4192495;28;20072;-69
2022/06/05 04:54:01;;;;;;;0.00;0.00;;;19.70;67.70;;;;;;4192302;28;20041;-67
2022/06/05 04:56:26;;;;;;;0.20;0.20;;;19.70;67.70;;;;;;4177748;28;20059;-67
2022/06/05 04:58:48;;;;;;;3.20;1.75;;;19.70;67.80;;;;;;4190363;28;20048;-68
2022/06/05 05:01:12;;;;;;;0.15;0.15;;;19.70;67.70;;;;;;4190921;28;20048;-69
2022/06/05 05:03:34;;;;;;;0.00;0.00;;;19.70;67.80;;;;;;4174110;28;20045;-68
2022/06/05 05:05:58;;;;;;;0.00;0.00;;;19.70;67.80;;;;;;4160214;28;20051;-68
2022/06/05 05:08:21;;;;;;;0.00;0.00;;;19.70;67.80;;;;;;4175811;28;20067;-68
2022/06/05 05:10:43;;;;;;;0.90;0.90;;;19.70;67.90;;;;;;4159168;28;20099;-68
2022/06/05 05:13:05;;;;;;;0.00;0.00;;;19.70;68.00;;;;;;4175481;28;20048;-68
2022/06/05 05:15:27;;;;;;;0.00;0.00;;;19.70;68.00;;;;;;4175015;28;20041;-68
2022/06/05 05:17:49;;;;;;;0.20;0.20;;;19.70;68.00;;;;;;4189629;28;20134;-68
2022/06/05 05:20:13;;;;;;;0.10;0.10;;;19.70;68.00;;;;;;4191083;28;20056;-67
2022/06/05 05:22:38;;;;;;;0.00;0.00;;;19.70;67.90;;;;;;4190911;28;20040;-67
2022/06/05 05:25:00;;;;;;;0.43;0.43;;;19.70;68.00;;;;;;4175761;28;20065;-67
2022/06/05 05:27:22;;;;;;;0.00;0.00;;;19.70;68.00;;;;;;4159048;28;20511;-68
2022/06/05 05:29:44;;;;;;;0.17;0.17;;;19.70;68.10;;;;;;4158698;28;20041;-68
2022/06/05 05:32:07;;;;;;;0.28;0.28;;;19.70;68.10;;;;;;4159381;28;20103;-66
2022/06/05 05:34:29;;;;;;;0.00;0.00;;;19.70;68.10;;;;;;4158930;28;20045;-66
2022/06/05 05:36:52;;;;;;;0.00;0.00;;;19.70;68.20;;;;;;4158926;28;20385;-67
2022/06/05 05:42:07;;;;;;;0.00;0.00;;;19.70;68.30;;;;;;4157546;28;20420;-67
2022/06/05 05:44:30;;;;;;;0.20;0.20;;;19.70;68.30;;;;;;4159098;28;20049;-67
2022/06/05 05:46:52;;;;;;;0.00;0.00;;;19.70;68.90;;;;;;4187794;28;20051;-68
2022/06/05 05:49:15;;;;;;;0.00;0.00;;;19.80;69.40;;;;;;4192026;28;20051;-67
2022/06/05 05:51:38;;;;;;;0.00;0.00;;;19.80;69.50;;;;;;4191907;28;20056;-68
2022/06/05 05:54:00;;;;;;;0.00;0.00;;;19.80;69.10;;;;;;4191924;28;20102;-67
2022/06/05 05:56:23;;;;;;;1.00;1.00;;;19.80;69.00;;;;;;4191435;28;20061;-68
2022/06/05 05:58:46;;;;;;;0.00;0.00;;;19.80;68.90;;;;;;4191827;28;20044;-67
2022/06/05 06:01:10;;;;;;;0.10;0.10;;;19.80;68.80;;;;;;4192043;28;20076;-68
2022/06/05 06:03:32;;;;;;;0.30;0.30;;;19.80;68.90;;;;;;4192116;28;20447;-68
2022/06/05 06:05:54;;;;;;;0.28;0.28;;;19.80;69.10;;;;;;4190222;28;20450;-67
2022/06/05 06:08:16;;;;;;;0.30;0.30;;;19.80;69.10;;;;;;4192080;28;20756;-67
2022/06/05 06:10:38;;;;;;;0.00;0.00;;;19.80;69.10;;;;;;4191990;28;20053;-67
2022/06/05 06:13:01;;;;;;;0.38;0.38;;;19.70;69.10;;;;;;4192108;28;20045;-67
2022/06/05 06:15:23;;;;;;;0.10;0.10;;;19.70;69.00;;;;;;4191803;28;20135;-67
2022/06/05 06:17:45;;;;;;;1.23;0.45;;;19.70;70.00;;;;;;4191704;28;20098;-68
2022/06/05 06:20:09;;;;;;;0.00;0.00;;;19.80;69.30;;;;;;4189866;28;20080;-67
2022/06/05 06:22:31;;;;;;;0.30;0.30;;;19.70;69.30;;;;;;4191922;28;20044;-67
2022/06/05 06:24:53;;;;;;;0.28;0.28;;;19.70;69.20;;;;;;4191925;28;20131;-67
2022/06/05 06:27:16;;;;;;;0.45;0.45;;;19.70;69.20;;;;;;4191996;28;20048;-67
2022/06/05 06:29:40;;;;;;;0.00;0.00;;;19.70;69.40;;;;;;4191586;28;20523;-73
2022/06/05 06:32:02;;;;;;;0.05;0.05;;;19.70;69.40;;;;;;4193892;28;20036;-73
2022/06/05 06:34:25;;;;;;;0.20;0.20;;;19.70;69.30;;;;;;4192863;28;20059;-73
2022/06/05 06:36:47;;;;;;;0.00;0.00;;;19.80;69.50;;;;;;4193918;28;20128;-71
2022/06/05 06:39:12;;;;;;;0.00;0.00;;;19.80;69.60;;;;;;4195079;28;20057;-71
2022/06/05 06:41:34;;;;;;;0.00;0.00;;;19.80;69.60;;;;;;4194469;28;20062;-70
2022/06/05 06:43:56;;;;;;;0.00;0.00;;;19.80;70.50;;;;;;4193995;28;20051;-71
2022/06/05 06:46:20;;;;;;;0.47;0.47;;;19.80;69.60;;;;;;4178026;28;20386;-71
2022/06/05 06:48:42;;;;;;;0.00;0.00;;;19.80;69.80;;;;;;4188773;28;20044;-70
2022/06/05 06:51:06;;;;;;;0.00;0.00;;;19.90;70.10;;;;;;4194465;28;20041;-71
2022/06/05 06:53:31;;;;;;;0.20;0.20;;;19.90;70.00;;;;;;4194499;28;20050;-70
2022/06/05 06:55:54;;;;;;;0.20;0.20;;;19.90;70.00;;;;;;4192601;28;20037;-70
2022/06/05 06:58:16;;;;;;;0.47;0.40;;;20.00;70.00;;;;;;4176597;28;20139;-71
2022/06/05 07:00:39;;;;;;;1.95;1.75;;;20.00;69.90;;;;;;4177767;28;20107;-70
2022/06/05 07:03:03;;;;;;;1.10;0.52;;;20.00;69.70;;;;;;4177716;28;20049;-70
2022/06/05 07:05:25;;;;;;;0.00;0.00;;;20.00;69.70;;;;;;4177832;28;20061;-69
2022/06/05 07:07:48;;;;;;;0.35;0.35;;;20.00;69.90;;;;;;4177735;28;20045;-69
2022/06/05 07:10:10;;;;;;;0.45;0.45;;;20.00;70.50;;;;;;4177866;28;20776;-69
2022/06/05 07:12:36;;;;;;;0.15;0.15;;;20.10;69.60;;;;;;4193475;28;20044;-70
2022/06/05 07:14:58;;;;;;;0.20;0.20;;;20.10;69.40;;;;;;4185701;28;20047;-70
2022/06/05 07:17:20;;;;;;;0.10;0.10;;;20.10;69.60;;;;;;4186653;28;20125;-70
2022/06/05 07:19:44;;;;;;;1.83;1.00;;;20.20;69.40;;;;;;4191167;28;20058;-71
2022/06/05 07:22:06;;;;;;;0.35;0.35;;;20.20;69.40;;;;;;4190679;28;20059;-70
2022/06/05 07:24:28;;;;;;;0.05;0.05;;;20.20;69.20;;;;;;4193474;28;20132;-71
2022/06/05 07:26:50;;;;;;;0.00;0.00;;;20.20;69.10;;;;;;4191591;28;20079;-70
2022/06/05 07:29:12;;;;;;;0.70;0.57;;;20.30;69.20;;;;;;4193888;28;20499;-70
2022/06/05 07:31:35;;;;;;;0.70;0.70;;;20.30;69.00;;;;;;4193497;28;20135;-69
2022/06/05 07:33:57;;;;;;;0.22;0.22;;;20.30;69.00;;;;;;4177549;28;20057;-69
2022/06/05 07:36:21;;;;;;;0.00;0.00;;;20.40;69.30;;;;;;4182381;28;20446;-69
2022/06/05 07:38:44;;;;;;;0.00;0.00;;;20.40;69.00;;;;;;4193591;28;20044;-69
2022/06/05 07:41:08;;;;;;;0.00;0.00;;;20.40;69.00;;;;;;4193774;28;20050;-69
2022/06/05 07:43:30;;;;;;;0.47;0.47;;;20.40;69.40;;;;;;4191673;28;20126;-69
2022/06/05 07:45:52;;;;;;;0.00;0.00;;;20.50;69.70;;;;;;4192676;28;20040;-67
2022/06/05 07:48:16;;;;;;;0.10;0.10;;;20.50;69.60;;;;;;4190689;28;20040;-69
2022/06/05 07:54:26;;;;;;;0.05;0.05;;;20.60;70.30;;;;;;4191827;28;20042;-69
2022/06/05 07:56:02;;;;;;;0.00;0.00;;;20.60;68.80;;;;;;4192590;28;20037;-68
2022/06/05 07:58:24;;;;;;;2.60;0.47;;;20.70;68.50;;;;;;4191446;28;20485;-69
2022/06/05 08:00:46;;;;;;;0.17;0.17;;;20.70;69.30;;;;;;4192803;28;20036;-69
2022/06/05 08:03:08;;;;;;;0.00;0.00;;;20.70;68.20;;;;;;4192459;28;20442;-69
2022/06/05 08:05:31;;;;;;;0.00;0.00;;;20.70;68.10;;;;;;4176609;28;20053;-70
2022/06/05 08:07:53;;;;;;;0.00;0.00;;;20.80;68.00;;;;;;4176765;28;20138;-69
2022/06/05 08:10:20;;;;;;;0.00;0.00;;;20.80;67.80;;;;;;4178500;28;20759;-66
2022/06/05 08:12:42;;;;;;;0.00;0.00;;;20.80;67.70;;;;;;4193236;28;20143;-68
2022/06/05 08:15:08;;;;;;;0.45;0.45;;;20.80;67.60;;;;;;4193126;28;20052;-68
2022/06/05 08:17:34;;;;;;;0.00;0.00;;;20.90;67.60;;;;;;4174477;28;20049;-70
2022/06/05 08:19:57;;;;;;;0.00;0.00;;;20.90;67.50;;;;;;4178314;28;20072;-69
2022/06/05 08:22:22;;;;;;;0.05;0.05;;;20.90;67.30;;;;;;4189669;28;20052;-69
2022/06/05 08:24:45;;;;;;;0.00;0.00;;;21.00;67.20;;;;;;4193200;28;20049;-69
2022/06/05 08:27:11;;;;;;;1.02;1.02;;;21.00;67.20;;;;;;4191679;28;20088;-69
2022/06/05 08:29:33;;;;;;;0.00;0.00;;;21.00;66.90;;;;;;4176076;28;20053;-69
2022/06/05 08:31:55;;;;;;;0.73;0.73;;;21.00;66.90;;;;;;4175794;28;20052;-69
2022/06/05 08:34:18;;;;;;;0.00;0.00;;;21.10;66.90;;;;;;4176471;28;20492;-69
2022/06/05 08:36:40;;;;;;;0.00;0.00;;;21.10;66.80;;;;;;4160369;28;20042;-69
2022/06/05 08:41:54;;;;;;;0.00;0.00;;;21.10;66.40;;;;;;4159296;28;20057;-69
2022/06/05 08:44:31;;;;;;;0.25;0.25;;;21.20;66.30;;;;;;4175510;28;20052;-69
2022/06/05 08:46:56;;;;;;;0.00;0.00;;;21.20;66.20;;;;;;4174912;28;20719;-69
2022/06/05 08:49:33;;;;;;;0.00;0.00;;;21.20;66.20;;;;;;4159466;28;20496;-69
2022/06/05 08:52:00;;;;;;;0.68;0.63;;;21.20;66.10;;;;;;4159147;28;20053;-68
2022/06/05 08:54:31;;;;;;;0.10;0.10;;;21.30;66.10;;;;;;4168778;28;20420;-69
2022/06/05 08:56:59;;;;;;;0.00;0.00;;;21.30;66.00;;;;;;4167840;28;20052;-69
2022/06/05 08:59:28;;;;;;;0.00;0.00;;;21.30;66.00;;;;;;4189789;28;20052;-69
2022/06/05 09:01:58;;;;;;;0.30;0.30;;;21.30;65.90;;;;;;4189382;28;20053;-69
2022/06/05 09:04:29;;;;;;;0.28;0.28;;;21.40;66.10;;;;;;4190690;28;20135;-70
2022/06/05 09:06:54;;;;;;;0.90;0.90;;;21.40;65.90;;;;;;4191897;28;20113;-68
2022/06/05 09:09:23;;;;;;;0.15;0.15;;;21.40;65.80;;;;;;4192919;28;20045;-69
2022/06/05 09:11:51;;;;;;;0.00;0.00;;;21.40;65.60;;;;;;4192167;28;20468;-69
2022/06/05 09:14:25;;;;;;;2.83;1.75;;;21.40;66.60;;;;;;4191351;28;20101;-70
2022/06/05 09:16:53;;;;;;;0.08;0.08;;;21.40;65.90;;;;;;4191120;28;20054;-70
2022/06/05 09:19:20;;;;;;;0.05;0.05;;;21.50;65.80;;;;;;4192879;28;20071;-69
2022/06/05 09:21:50;;;;;;;0.10;0.10;;;21.40;65.60;;;;;;4192541;28;20133;-67
2022/06/05 09:24:16;;;;;;;0.00;0.00;;;21.50;65.80;;;;;;4191540;28;20162;-68
2022/06/05 09:26:52;;;;;;;0.20;0.20;;;21.50;65.60;;;;;;4190173;28;20048;-68
2022/06/05 09:29:27;;;;;;;0.10;0.10;;;21.50;65.80;;;;;;4190361;28;20123;-69
2022/06/05 09:32:23;;;;;;;0.10;0.10;;;21.50;65.50;;;;;;4175293;28;20096;-69
2022/06/05 09:34:51;;;;;;;0.30;0.30;;;21.50;65.60;;;;;;4174193;28;20102;-68
2022/06/05 09:37:20;;;;;;;0.00;0.00;;;21.50;65.80;;;;;;4175607;28;20052;-69
2022/06/05 09:39:46;;;;;;;7.60;0.75;;;21.60;66.00;;;;;;4173947;28;20102;-68
2022/06/05 09:42:39;;;;;;;0.17;0.17;;;21.60;65.80;;;;;;4187945;28;20062;-68
2022/06/05 09:45:16;;;;;;;0.00;0.00;;;21.60;65.60;;;;;;4188431;28;20056;-68
2022/06/05 09:47:47;;;;;;;0.00;0.00;;;21.60;65.80;;;;;;4191586;28;20123;-68
2022/06/05 09:50:22;;;;;;;0.20;0.20;;;21.70;66.10;;;;;;4192034;28;20045;-68
2022/06/05 09:52:44;;;;;;;0.10;0.10;;;21.70;66.10;;;;;;4193292;28;20043;-67
2022/06/05 09:55:17;;;;;;;0.10;0.10;;;21.70;65.80;;;;;;4191459;28;20476;-69
2022/06/05 10:00:51;;;;;;;0.68;0.57;;;21.80;65.70;;;;;;4191051;28;20500;-69
2022/06/05 10:03:16;;;;;;;0.00;0.00;;;21.80;65.30;;;;;;4191897;28;20052;-68
2022/06/05 10:05:44;;;;;;;0.20;0.20;;;21.80;65.40;;;;;;4192155;28;20040;-69
2022/06/05 10:08:17;;;;;;;0.00;0.00;;;21.90;65.70;;;;;;4194478;28;20549;-69
2022/06/05 10:10:41;;;;;;;0.15;0.15;;;21.90;65.50;;;;;;4193772;28;20515;-69
2022/06/05 10:13:12;;;;;;;0.40;0.40;;;21.90;65.30;;;;;;4195283;28;20048;-70
2022/06/05 10:15:44;;;;;;;0.00;0.00;;;21.90;65.20;;;;;;4194935;28;20052;-70
2022/06/05 10:18:13;;;;;;;0.00;0.00;;;22.00;65.20;;;;;;4194584;28;20051;-70
2022/06/05 10:20:56;;;;;;;0.00;0.00;;;22.00;64.90;;;;;;4195076;28;20098;-70
2022/06/05 10:23:35;;;;;;;0.98;0.47;;;22.00;65.00;;;;;;4194845;28;20044;-70
2022/06/05 10:26:03;;;;;;;0.00;0.00;;;22.00;65.10;;;;;;4194791;28;20049;-70
2022/06/05 10:28:27;;;;;;;0.85;0.85;;;22.00;64.90;;;;;;4194535;28;20044;-71
2022/06/05 10:30:58;;;;;;;0.38;0.38;;;22.10;65.40;;;;;;4194710;28;20051;-70
2022/06/05 10:33:26;;;;;;;0.00;0.00;;;22.10;64.80;;;;;;4194448;28;20052;-70
2022/06/05 10:35:58;;;;;;;0.00;0.00;;;22.20;65.10;;;;;;4195102;28;20052;-70
2022/06/05 10:38:32;;;;;;;0.00;0.00;;;22.20;65.20;;;;;;4193504;28;20441;-70
2022/06/05 10:40:59;;;;;;;0.00;0.00;;;22.20;65.10;;;;;;4194193;28;20075;-69
2022/06/05 10:43:25;;;;;;;0.10;0.10;;;22.20;64.90;;;;;;4194372;28;20041;-69
2022/06/05 10:45:52;;;;;;;1.95;0.95;;;22.30;64.80;;;;;;4194751;28;20040;-69
2022/06/05 10:48:25;;;;;;;0.20;0.20;;;22.30;65.00;;;;;;4194350;28;20066;-69
2022/06/05 10:50:56;;;;;;;0.47;0.47;;;22.30;64.60;;;;;;4192900;28;20041;-69
2022/06/05 10:53:27;;;;;;;0.95;0.50;;;22.40;65.00;;;;;;4193869;28;20549;-69
2022/06/05 10:56:01;;;;;;;0.00;0.00;;;22.40;64.50;;;;;;4194778;28;20054;-70
2022/06/05 10:58:27;;;;;;;0.00;0.00;;;22.40;64.30;;;;;;4177380;28;20072;-70
2022/06/05 11:01:00;;;;;;;0.25;0.25;;;22.40;64.40;;;;;;4178059;28;20045;-70
2022/06/05 11:03:29;;;;;;;0.35;0.35;;;22.50;64.60;;;;;;4177276;28;20055;-69
2022/06/05 11:06:12;;;;;;;0.00;0.00;;;22.50;64.30;;;;;;4189000;28;20040;-69
2022/06/05 11:08:45;;;;;;;0.20;0.20;;;22.50;64.10;;;;;;4177190;28;20486;-70
2022/06/05 11:14:08;;;;;;;0.28;0.28;;;22.50;64.00;;;;;;4193489;28;20044;-70
2022/06/05 11:16:56;;;;;;;0.05;0.05;;;22.50;64.10;;;;;;4191961;28;20056;-70
2022/06/05 11:19:30;;;;;;;0.47;0.47;;;22.60;64.30;;;;;;4187278;28;20433;-70
2022/06/05 11:21:53;;;;;;;0.08;0.08;;;22.60;64.20;;;;;;4190113;28;20385;-70
2022/06/05 11:24:23;;;;;;;0.05;0.05;;;22.60;64.10;;;;;;4192686;28;20487;-70
2022/06/05 11:26:54;;;;;;;0.00;0.00;;;22.60;64.00;;;;;;4190178;28;20052;-69
2022/06/05 11:29:26;;;;;;;1.20;1.10;;;22.70;64.10;;;;;;4194098;28;20051;-70
2022/06/05 11:31:59;;;;;;;0.15;0.15;;;22.70;63.80;;;;;;4192775;28;20044;-70
2022/06/05 11:34:38;;;;;;;0.10;0.10;;;22.70;63.80;;;;;;4193096;28;20051;-70
2022/06/05 11:37:22;;;;;;;0.10;0.10;;;22.70;63.70;;;;;;4188197;28;20573;-70
2022/06/05 11:39:54;;;;;;;0.10;0.10;;;22.70;63.80;;;;;;4177175;28;20052;-70
2022/06/05 11:42:22;;;;;;;0.17;0.10;;;22.70;63.80;;;;;;4176735;28;20048;-70
2022/06/05 11:44:52;;;;;;;0.45;0.45;;;22.80;64.70;;;;;;4175238;28;20049;-70
2022/06/05 11:47:35;;;;;;;0.00;0.00;;;22.80;63.90;;;;;;4176176;28;20088;-71
2022/06/05 11:50:04;;;;;;;0.10;0.10;;;22.80;63.80;;;;;;4175258;28;20044;-70
2022/06/05 11:52:36;;;;;;;0.00;0.00;;;22.80;63.60;;;;;;4175704;28;20053;-70
2022/06/05 11:55:05;;;;;;;0.47;0.47;;;22.80;63.80;;;;;;4176658;28;20063;-70
2022/06/05 11:57:36;;;;;;;0.00;0.00;;;22.90;64.10;;;;;;4175466;28;20061;-70
2022/06/05 12:00:02;;;;;;;;;;;22.90;63.70;;;;;;4188087;28;20483;-70
2022/06/05 12:02:58;;;;;;;0.10;0.10;;;22.90;63.80;;;;;;4193236;28;19949;-70
2022/06/05 12:05:28;;;;;;;0.00;0.00;;;22.90;63.40;;;;;;4192880;28;20049;-69
2022/06/05 12:07:52;;;;;;;0.32;0.32;;;22.90;63.50;;;;;;4193334;28;20102;-70
2022/06/05 12:10:22;;;;;;;0.05;0.05;;;22.90;63.40;;;;;;4193239;28;20511;-70
2022/06/05 12:12:49;;;;;;;0.52;0.52;;;22.90;63.30;;;;;;4176180;28;20049;-70
2022/06/05 12:15:24;;;;;;;0.00;0.00;;;23.00;63.30;;;;;;4176648;28;20488;-69
2022/06/05 12:17:53;;;;;;;0.08;0.08;;;23.00;63.30;;;;;;4190545;28;20478;-70
2022/06/05 12:20:24;;;;;;;0.13;0.13;;;23.00;63.20;;;;;;4192399;28;20052;-70
2022/06/05 12:22:51;;;;;;;0.63;0.63;;;23.00;63.10;;;;;;4191961;28;20456;-71
2022/06/05 12:25:23;;;;;;;0.00;0.00;;;23.10;63.10;;;;;;4176563;28;20129;-70
2022/06/05 12:27:58;;;;;;;0.00;0.00;;;23.00;62.90;;;;;;4193006;28;20063;-70
2022/06/05 12:30:25;;;;;;;0.35;0.35;;;23.10;62.80;;;;;;4191069;28;20044;-70
2022/06/05 12:32:56;;;;;;;0.00;0.00;;;23.10;62.80;;;;;;4192559;28;20036;-70
2022/06/05 12:35:24;;;;;;;0.00;0.00;;;23.10;62.80;;;;;;4192834;28;20400;-70
2022/06/05 12:37:51;;;;;;;0.30;0.30;;;23.10;62.90;;;;;;4193158;28;20456;-70
2022/06/05 12:40:18;;;;;;;0.00;0.00;;;23.10;62.90;;;;;;4191825;28;20945;-69
2022/06/05 12:42:48;;;;;;;0.25;0.25;;;23.10;62.80;;;;;;4192799;28;20054;-69
2022/06/05 12:45:19;;;;;;;0.20;0.20;;;23.10;62.80;;;;;;4190320;28;20174;-69
2022/06/05 12:47:58;;;;;;;0.00;0.00;;;23.10;62.80;;;;;;4191040;28;20051;-70
2022/06/05 12:50:33;;;;;;;0.00;0.00;;;23.10;62.90;;;;;;4163792;28;20059;-70
2022/06/05 12:53:02;;;;;;;0.00;0.00;;;23.10;62.90;;;;;;4188028;28;20090;-70
2022/06/05 12:55:36;;;;;;;0.00;0.00;;;23.10;63.00;;;;;;4188400;28;20063;-70
2022/06/05 12:58:07;;;;;;;0.13;0.13;;;23.10;63.00;;;;;;4190105;28;20059;-70
2022/06/05 13:00:38;;;;;;;0.80;0.80;;;23.10;63.00;;;;;;4190022;28;20048;-69
2022/06/05 13:03:12;;;;;;;0.00;0.00;;;23.10;63.10;;;;;;4188699;28;20098;-69